Flight Track Log - Related Links

Times and Time Zones

All times are in EDT time to prevent confusion due to time zone crossing. See the AAY974 flight status page for this flight to view local times or setup timezone preferences in your user account.

Time Position Orientation Groundspeed Altitude Reporting Facility
EDT Latitude Longitude Course Direction KTS MPH feet Rate Location/Type
Mon 03:17:39 PM 26.8661 -81.9581 North 233 268 2,900  Level Miami Center
Mon 03:18:39 PM 26.9256 -81.9303 23° Northeast 200 230 3,900 1,500 Climbing Miami Center
Mon 03:19:39 PM 27.0022 -81.9456 350° North 222 255 5,900 2,450 Climbing Miami Center
Mon 03:20:39 PM 27.0836 -81.9514 356° North 248 285 8,800 2,450 Climbing Miami Center
Mon 03:21:39 PM 27.1667 -81.9572 356° North 277 319 10,800 1,950 Climbing Miami Center
Mon 03:22:39 PM 27.2625 -81.9639 356° North 310 357 12,700 2,150 Climbing Miami Center
Mon 03:23:00 PM 27.6367 -82.0000 North  Level FlightAware Approximate
Mon 03:23:39 PM 27.3625 -81.9706 357° North 341 392 15,100  Level Miami Center
Mon 03:24:39 PM 27.4708 -81.9778 357° North 369 425 16,600 1,750 Climbing Miami Center
Mon 03:25:39 PM 27.5728 -81.9847 357° North 390 449 18,600 1,971 Climbing Miami Center
Mon 03:28:03 PM 27.8506 -82.0031 357° North 439 505 23,300 1,794 Climbing Jacksonville Center
Mon 03:29:03 PM 27.9611 -82.0114 356° North 409 471 24,700 1,350 Climbing Jacksonville Center
Mon 03:30:03 PM 28.0681 -82.0622 337° Northwest 396 456 26,000 1,100 Climbing Jacksonville Center
Mon 03:31:03 PM 28.1706 -82.1297 330° Northwest 408 470 26,900 950 Climbing Jacksonville Center
Mon 03:32:03 PM 28.2711 -82.1950 330° Northwest 414 476 27,900 850 Climbing Jacksonville Center
Mon 03:33:03 PM 28.3758 -82.2603 331° Northwest 420 483 28,600 800 Climbing Jacksonville Center
Mon 03:34:03 PM 28.4806 -82.3281 330° Northwest 425 489 29,500 900 Climbing Jacksonville Center
Mon 03:35:03 PM 28.5850 -82.3961 330° Northwest 425 489 30,400 750 Climbing Jacksonville Center
Mon 03:36:03 PM 28.7022 -82.4689 331° Northwest 425 489 31,000 650 Climbing Jacksonville Center
Mon 03:37:03 PM 28.8067 -82.5372 330° Northwest 425 489 31,700 450 Climbing Jacksonville Center
Mon 03:38:03 PM 28.9133 -82.6033 332° Northwest 425 489 31,900 100 Climbing Jacksonville Center
Mon 03:39:03 PM 29.0181 -82.6717 330° Northwest 425 489 31,900  Level Jacksonville Center
Mon 03:40:03 PM 29.1225 -82.7381 331° Northwest 425 489 31,900  Level Jacksonville Center
Mon 03:41:03 PM 29.2269 -82.8069 330° Northwest 425 489 31,900 50 Level Jacksonville Center
Mon 03:42:03 PM 29.3292 -82.8736 330° Northwest 425 489 32,000  Climbing Jacksonville Center
Mon 03:43:03 PM 29.4314 -82.9403 330° Northwest 425 489 31,900 -50 Descending Jacksonville Center
Mon 03:44:03 PM 29.5378 -83.0094 331° Northwest 425 489 31,900 50 Level Jacksonville Center
Mon 03:45:03 PM 29.6464 -83.0669 335° Northwest 412 474 32,000 50 Climbing Jacksonville Center
Mon 03:46:03 PM 29.7653 -83.1056 344° North 431 496 32,000  Level Jacksonville Center
Mon 03:47:03 PM 29.8842 -83.1442 344° North 438 504 32,000  Level Jacksonville Center
Mon 03:48:03 PM 30.0011 -83.1828 344° North 439 505 32,000  Level Jacksonville Center
Mon 03:49:03 PM 30.1094 -83.2144 346° North 439 505 32,000  Level Jacksonville Center
Mon 03:50:03 PM 30.2347 -83.2267 355° North 439 505 32,000 -50 Level Jacksonville Center
Mon 03:51:03 PM 30.3578 -83.2417 354° North 439 505 31,900  Descending Jacksonville Center
Mon 03:52:03 PM 30.4789 -83.2567 354° North 444 511 32,000  Climbing Jacksonville Center
Mon 03:53:03 PM 30.6042 -83.2692 355° North 444 511 31,900 -50 Descending Jacksonville Center
Mon 03:54:03 PM 30.7272 -83.2817 355° North 444 511 31,900 50 Level Jacksonville Center
Mon 03:55:03 PM 30.8631 -83.2992 354° North 444 511 32,000 35 Climbing Jacksonville Center
Mon 03:56:55 PM 31.1058 -83.3258 355° North 479 551 32,000  Level Atlanta Center
Mon 03:57:55 PM 31.2394 -83.3419 354° North 484 557 32,000  Level Atlanta Center
Mon 03:58:55 PM 31.3692 -83.3581 354° North 476 548 32,000  Level Atlanta Center
Mon 03:59:55 PM 31.4903 -83.3692 356° North 476 548 32,000  Level Atlanta Center
Mon 04:00:55 PM 31.6197 -83.3828 355° North 476 548 32,000 50 Level Atlanta Center
Mon 04:01:55 PM 31.7511 -83.3989 354° North 476 548 32,100 300 Climbing Atlanta Center
Mon 04:02:55 PM 31.8806 -83.4153 354° North 476 548 32,600 650 Climbing Atlanta Center
Mon 04:03:55 PM 32.0103 -83.4289 355° North 476 548 33,400 550 Climbing Atlanta Center
Mon 04:04:55 PM 32.1417 -83.4428 355° North 471 542 33,700 300 Climbing Atlanta Center
Mon 04:05:55 PM 32.2692 -83.4592 354° North 466 536 34,000 150 Climbing Atlanta Center
Mon 04:06:55 PM 32.3986 -83.4731 355° North 466 536 34,000  Level Atlanta Center
Mon 04:07:55 PM 32.5261 -83.4894 354° North 466 536 34,000  Level Atlanta Center
Mon 04:08:55 PM 32.6597 -83.5058 354° North 466 536 34,000  Level Atlanta Center
Mon 04:09:55 PM 32.7911 -83.5175 356° North 466 536 34,000  Level Atlanta Center
Mon 04:10:55 PM 32.9208 -83.5339 354° North 466 536 34,000  Level Atlanta Center
Mon 04:11:55 PM 33.0503 -83.5506 354° North 466 536 34,000  Level Atlanta Center
Mon 04:12:55 PM 33.1922 -83.5647 355° North 466 536 34,000  Level Atlanta Center
Mon 04:13:55 PM 33.3236 -83.5789 355° North 466 536 34,000  Level Atlanta Center
Mon 04:14:55 PM 33.4511 -83.5931 355° North 466 536 34,000  Level Atlanta Center
Mon 04:15:55 PM 33.5806 -83.6100 354° North 461 531 34,000  Level Atlanta Center
Mon 04:16:55 PM 33.7081 -83.6267 354° North 466 536 34,000  Level Atlanta Center
Mon 04:17:55 PM 33.8353 -83.6411 355° North 461 531 34,000  Level Atlanta Center
Mon 04:18:55 PM 33.9606 -83.6581 354° North 461 531 34,000  Level Atlanta Center
Mon 04:19:55 PM 34.0881 -83.6725 355° North 461 531 34,000  Level Atlanta Center
Mon 04:20:55 PM 34.2111 -83.6872 354° North 461 531 34,000  Level Atlanta Center
Mon 04:21:55 PM 34.3386 -83.6992 356° North 455 524 34,000  Level Atlanta Center
Mon 04:22:55 PM 34.4639 -83.7189 353° North 455 524 34,000  Level Atlanta Center
Mon 04:23:55 PM 34.5722 -83.7286 356° North 449 517 34,000  Level Atlanta Center
Mon 04:24:55 PM 34.6997 -83.7431 355° North 449 517 34,000  Level Atlanta Center
Mon 04:25:55 PM 34.8208 -83.7606 353° North 437 503 34,000  Level Atlanta Center
Mon 04:26:55 PM 34.9439 -83.7778 353° North 446 513 34,000  Level Atlanta Center
Mon 04:27:55 PM 35.0669 -83.7925 354° North 446 513 34,000  Level Atlanta Center
Mon 04:28:55 PM 35.1861 -83.8075 354° North 446 513 34,000  Level Atlanta Center
Mon 04:29:55 PM 35.3069 -83.8225 354° North 440 506 34,000  Level Atlanta Center
Mon 04:30:55 PM 35.4239 -83.8350 355° North 434 499 34,000  Level Atlanta Center
Mon 04:31:55 PM 35.5408 -83.8500 354° North 429 494 34,000  Level Atlanta Center
Mon 04:32:55 PM 35.6597 -83.8650 354° North 423 487 34,000  Level Atlanta Center
Mon 04:33:55 PM 35.7767 -83.8800 354° North 423 487 34,000  Level Atlanta Center
Mon 04:34:55 PM 35.8956 -83.8953 354° North 423 487 34,000  Level Atlanta Center
Mon 04:36:28 PM 36.0736 -83.9186 354° North 418 481 34,000  Level Indianapolis Center
Mon 04:37:30 PM 36.1897 -83.9356 353° North 419 482 34,000  Level Indianapolis Center
Mon 04:38:32 PM 36.3281 -83.9550 354° North 419 482 34,000  Level Indianapolis Center
Mon 04:39:33 PM 36.4439 -83.9592 358° North 419 482 34,000  Level Indianapolis Center
Mon 04:40:35 PM 36.5592 -83.9528 North 418 481 34,000  Level Indianapolis Center
Mon 04:41:37 PM 36.6764 -83.9456 North 418 481 34,000  Level Indianapolis Center
Mon 04:42:39 PM 36.7942 -83.9383 North 419 482 34,000  Level Indianapolis Center
Mon 04:43:41 PM 36.9131 -83.9314 North 423 487 34,000  Level Indianapolis Center
Mon 04:44:43 PM 37.0514 -83.9233 North 423 487 34,000  Level Indianapolis Center
Mon 04:45:45 PM 37.1697 -83.9167 North 422 486 34,000  Level Indianapolis Center
Mon 04:46:48 PM 37.2861 -83.9097 North 420 483 34,000  Level Indianapolis Center
Mon 04:47:50 PM 37.4028 -83.9019 North 417 480 34,000  Level Indianapolis Center
Mon 04:48:52 PM 37.5197 -83.8947 North 420 483 34,000  Level Indianapolis Center
Mon 04:49:54 PM 37.6378 -83.8900 North 422 486 34,000  Level Indianapolis Center
Mon 04:50:56 PM 37.7750 -83.8794 North 420 483 34,000  Level Indianapolis Center
Mon 04:51:58 PM 37.8922 -83.8731 North 421 484 34,000  Level Indianapolis Center
Mon 04:53:00 PM 38.0100 -83.8650 North 422 486 34,000  Level Indianapolis Center
Mon 04:54:02 PM 38.1272 -83.8578 North 422 486 34,000  Level Indianapolis Center
Mon 04:55:04 PM 38.2450 -83.8494 North 422 486 34,000  Level Indianapolis Center
Mon 04:56:06 PM 38.3619 -83.8428 North 421 484 34,000 -242 Level Indianapolis Center
Mon 04:57:08 PM 38.4989 -83.8336 North 421 484 33,500 -484 Descending Indianapolis Center
Mon 04:58:10 PM 38.6158 -83.8264 North 419 482 33,000 -242 Descending Indianapolis Center
Mon 04:59:12 PM 38.7264 -83.8194 North 422 486 33,000  Level Indianapolis Center
Mon 05:00:14 PM 38.8456 -83.8125 North 424 488 33,000  Level Indianapolis Center
Mon 05:01:16 PM 38.9644 -83.8061 North 424 488 33,000 -48 Level Indianapolis Center
Mon 05:02:18 PM 39.1044 -83.7953 North 428 493 32,900 -581 Descending Indianapolis Center
Mon 05:03:20 PM 39.2242 -83.7878 North 427 491 31,800 -1,161 Descending Indianapolis Center
Mon 05:04:22 PM 39.3461 -83.7794 North 433 498 30,500 -1,306 Descending Indianapolis Center
Mon 05:05:24 PM 39.4692 -83.7717 North 437 503 29,100 -1,415 Descending Indianapolis Center
Mon 05:06:25 PM 39.5925 -83.7631 North 437 503 27,600 -1,561 Descending Indianapolis Center
Mon 05:07:27 PM 39.7181 -83.7556 North 443 510 25,900 -1,355 Descending Indianapolis Center
Mon 05:08:29 PM 39.8425 -83.7467 North 438 504 24,800 -919 Descending Indianapolis Center
Mon 05:09:31 PM 39.9619 -83.7383 North 423 487 24,000 -726 Descending Indianapolis Center
Mon 05:10:33 PM 40.0797 -83.7308 North 417 480 23,300 -968 Descending Indianapolis Center
Mon 05:11:35 PM 40.1967 -83.7228 North 416 479 22,000 -629 Descending Indianapolis Center
Mon 05:12:37 PM 40.3136 -83.7153 North 415 478 22,000 -532 Level Indianapolis Center
Mon 05:13:39 PM 40.4489 -83.7053 North 414 476 20,900 -1,561 Descending Indianapolis Center
Mon 05:14:40 PM 40.5572 -83.6978 North 400 460 18,800 -2,390 Descending Indianapolis Center
Mon 05:15:42 PM 40.6647 -83.6919 North 387 445 16,000 -1,839 Descending Indianapolis Center
Mon 05:16:44 PM 40.7683 -83.6853 North 373 429 15,000 -484 Descending Indianapolis Center
Mon 05:17:46 PM 40.8661 -83.6778 North 353 406 15,000 -857 Level Indianapolis Center
Mon 05:18:22 PM 40.9300 -83.6750 North 345 397 13,600 -2,375 Descending Cleveland Center
Mon 05:19:22 PM 41.0239 -83.6686 North 338 389 11,200 -1,500 Descending Cleveland Center
Mon 05:20:22 PM 41.1117 -83.6617 North 324 373 10,600 -1,050 Descending Cleveland Center
Mon 05:21:22 PM 41.1911 -83.6544 North 300 345 9,100 -1,550 Descending Cleveland Center
Mon 05:22:22 PM 41.2642 -83.6522 North 280 322 7,500 -1,550 Descending Cleveland Center
Mon 05:23:22 PM 41.3394 -83.6475 North 274 315 6,000 -750 Descending Cleveland Center
Mon 05:24:22 PM 41.4061 -83.6425 North 256 295 6,000 -500 Level Cleveland Center
Mon 05:25:22 PM 41.4725 -83.6594 349° North 242 278 5,000 -1,300 Descending Cleveland Center
Mon 05:26:22 PM 41.5306 -83.6706 352° North 222 255 3,400 -1,250 Descending Cleveland Center
Mon 05:27:22 PM 41.5844 -83.6869 347° North 212 244 2,500 -900 Descending Cleveland Center

Login

Don't have an account? Register now (free) for customized features, flight alerts, and more!